sensor_id;sensor_type;location;lat;lon;timestamp;temperature;humidity
24814;DHT22;12904;50.088;11.414;2023-03-02T00:01:04;1.90;99.90
24814;DHT22;12904;50.088;11.414;2023-03-02T00:03:35;1.80;99.90
24814;DHT22;12904;50.088;11.414;2023-03-02T00:06:02;1.80;99.90
24814;DHT22;12904;50.088;11.414;2023-03-02T00:08:28;1.80;99.90
24814;DHT22;12904;50.088;11.414;2023-03-02T00:10:55;1.80;99.90
24814;DHT22;12904;50.088;11.414;2023-03-02T00:13:21;1.80;99.90
24814;DHT22;12904;50.088;11.414;2023-03-02T00:15:47;1.80;99.90
24814;DHT22;12904;50.088;11.414;2023-03-02T00:18:12;1.90;99.90
24814;DHT22;12904;50.088;11.414;2023-03-02T00:20:38;1.90;99.90
24814;DHT22;12904;50.088;11.414;2023-03-02T00:23:03;1.90;99.90
24814;DHT22;12904;50.088;11.414;2023-03-02T00:25:29;1.80;99.90
24814;DHT22;12904;50.088;11.414;2023-03-02T00:27:55;1.80;99.90
24814;DHT22;12904;50.088;11.414;2023-03-02T00:30:21;1.70;99.90
24814;DHT22;12904;50.088;11.414;2023-03-02T00:32:46;1.70;99.90
24814;DHT22;12904;50.088;11.414;2023-03-02T00:35:13;1.60;99.90
24814;DHT22;12904;50.088;11.414;2023-03-02T00:37:38;1.70;99.90
24814;DHT22;12904;50.088;11.414;2023-03-02T00:40:06;1.70;99.90
24814;DHT22;12904;50.088;11.414;2023-03-02T00:42:34;1.70;99.90
24814;DHT22;12904;50.088;11.414;2023-03-02T00:45:01;1.70;99.90
24814;DHT22;12904;50.088;11.414;2023-03-02T00:47:29;1.70;99.90
24814;DHT22;12904;50.088;11.414;2023-03-02T00:49:57;1.80;99.90
24814;DHT22;12904;50.088;11.414;2023-03-02T00:52:22;1.70;99.90
24814;DHT22;12904;50.088;11.414;2023-03-02T00:54:48;1.70;99.90
24814;DHT22;12904;50.088;11.414;2023-03-02T00:57:14;1.60;99.90
24814;DHT22;12904;50.088;11.414;2023-03-02T00:59:39;1.50;99.90
24814;DHT22;12904;50.088;11.414;2023-03-02T01:02:06;1.50;99.90
24814;DHT22;12904;50.088;11.414;2023-03-02T01:04:37;1.40;99.90
24814;DHT22;12904;50.088;11.414;2023-03-02T01:07:06;1.40;99.90
24814;DHT22;12904;50.088;11.414;2023-03-02T01:09:32;1.30;99.90
24814;DHT22;12904;50.088;11.414;2023-03-02T01:11:58;1.30;99.90
24814;DHT22;12904;50.088;11.414;2023-03-02T01:14:24;1.20;99.90
24814;DHT22;12904;50.088;11.414;2023-03-02T01:16:50;1.10;99.90
24814;DHT22;12904;50.088;11.414;2023-03-02T01:19:16;1.20;99.90
24814;DHT22;12904;50.088;11.414;2023-03-02T01:21:42;1.20;99.90
24814;DHT22;12904;50.088;11.414;2023-03-02T01:24:09;1.20;99.90
24814;DHT22;12904;50.088;11.414;2023-03-02T01:26:34;1.20;99.90
24814;DHT22;12904;50.088;11.414;2023-03-02T01:29:00;1.20;99.90
24814;DHT22;12904;50.088;11.414;2023-03-02T01:31:27;1.20;99.90
24814;DHT22;12904;50.088;11.414;2023-03-02T01:33:52;1.20;99.90
24814;DHT22;12904;50.088;11.414;2023-03-02T01:36:19;1.30;99.90
24814;DHT22;12904;50.088;11.414;2023-03-02T01:38:45;1.30;99.90
24814;DHT22;12904;50.088;11.414;2023-03-02T01:41:11;1.40;99.90
24814;DHT22;12904;50.088;11.414;2023-03-02T01:43:37;1.50;99.90
24814;DHT22;12904;50.088;11.414;2023-03-02T01:46:22;1.50;99.90
24814;DHT22;12904;50.088;11.414;2023-03-02T01:49:10;1.50;99.90
24814;DHT22;12904;50.088;11.414;2023-03-02T01:51:46;1.60;99.90
24814;DHT22;12904;50.088;11.414;2023-03-02T01:54:15;1.70;99.90
24814;DHT22;12904;50.088;11.414;2023-03-02T01:56:43;1.70;99.90
24814;DHT22;12904;50.088;11.414;2023-03-02T01:59:12;1.70;99.90
24814;DHT22;12904;50.088;11.414;2023-03-02T02:01:42;1.70;99.90
24814;DHT22;12904;50.088;11.414;2023-03-02T02:04:09;1.80;99.90
24814;DHT22;12904;50.088;11.414;2023-03-02T02:06:46;2.00;99.90
24814;DHT22;12904;50.088;11.414;2023-03-02T02:09:14;2.10;99.90
24814;DHT22;12904;50.088;11.414;2023-03-02T02:11:44;2.10;99.90
24814;DHT22;12904;50.088;11.414;2023-03-02T02:14:10;2.10;99.90
24814;DHT22;12904;50.088;11.414;2023-03-02T02:16:36;2.20;99.90
24814;DHT22;12904;50.088;11.414;2023-03-02T02:19:05;2.20;99.90
24814;DHT22;12904;50.088;11.414;2023-03-02T02:21:35;2.10;99.90
24814;DHT22;12904;50.088;11.414;2023-03-02T02:26:53;2.00;99.90
24814;DHT22;12904;50.088;11.414;2023-03-02T02:29:33;2.00;99.90
24814;DHT22;12904;50.088;11.414;2023-03-02T02:32:08;2.00;99.90
24814;DHT22;12904;50.088;11.414;2023-03-02T02:34:58;2.00;99.90
24814;DHT22;12904;50.088;11.414;2023-03-02T02:40:01;2.10;99.90
24814;DHT22;12904;50.088;11.414;2023-03-02T02:42:41;2.10;99.90
24814;DHT22;12904;50.088;11.414;2023-03-02T02:45:21;2.00;99.90
24814;DHT22;12904;50.088;11.414;2023-03-02T02:47:49;2.10;99.90
24814;DHT22;12904;50.088;11.414;2023-03-02T02:50:21;2.10;99.90
24814;DHT22;12904;50.088;11.414;2023-03-02T02:52:52;2.10;99.90
24814;DHT22;12904;50.088;11.414;2023-03-02T02:55:22;2.00;99.90
24814;DHT22;12904;50.088;11.414;2023-03-02T02:57:51;1.90;99.90
24814;DHT22;12904;50.088;11.414;2023-03-02T03:00:19;1.90;99.90
24814;DHT22;12904;50.088;11.414;2023-03-02T03:02:52;1.90;99.90
24814;DHT22;12904;50.088;11.414;2023-03-02T03:05:21;1.90;99.90
24814;DHT22;12904;50.088;11.414;2023-03-02T03:07:46;1.90;99.90
24814;DHT22;12904;50.088;11.414;2023-03-02T03:10:22;1.90;99.90
24814;DHT22;12904;50.088;11.414;2023-03-02T03:12:50;1.90;99.90
24814;DHT22;12904;50.088;11.414;2023-03-02T03:15:16;1.90;99.90
24814;DHT22;12904;50.088;11.414;2023-03-02T03:17:56;1.80;99.90
24814;DHT22;12904;50.088;11.414;2023-03-02T03:20:23;1.70;99.90
24814;DHT22;12904;50.088;11.414;2023-03-02T03:22:49;1.60;99.90
24814;DHT22;12904;50.088;11.414;2023-03-02T03:25:18;1.50;99.90
24814;DHT22;12904;50.088;11.414;2023-03-02T03:27:44;1.40;99.90
24814;DHT22;12904;50.088;11.414;2023-03-02T03:30:12;1.30;99.90
24814;DHT22;12904;50.088;11.414;2023-03-02T03:32:39;1.30;99.90
24814;DHT22;12904;50.088;11.414;2023-03-02T03:35:06;1.20;99.90
24814;DHT22;12904;50.088;11.414;2023-03-02T03:37:33;1.10;99.90
24814;DHT22;12904;50.088;11.414;2023-03-02T03:39:59;1.00;99.90
24814;DHT22;12904;50.088;11.414;2023-03-02T03:42:25;0.90;99.90
24814;DHT22;12904;50.088;11.414;2023-03-02T03:44:51;0.80;99.90
24814;DHT22;12904;50.088;11.414;2023-03-02T03:47:17;0.80;99.90
24814;DHT22;12904;50.088;11.414;2023-03-02T03:49:42;0.70;99.90
24814;DHT22;12904;50.088;11.414;2023-03-02T03:52:08;0.70;99.90
24814;DHT22;12904;50.088;11.414;2023-03-02T03:54:34;0.70;99.90
24814;DHT22;12904;50.088;11.414;2023-03-02T03:56:59;0.80;99.90
24814;DHT22;12904;50.088;11.414;2023-03-02T03:59:25;0.90;99.90
24814;DHT22;12904;50.088;11.414;2023-03-02T04:01:59;0.90;99.90
24814;DHT22;12904;50.088;11.414;2023-03-02T04:04:28;1.00;99.90
24814;DHT22;12904;50.088;11.414;2023-03-02T04:06:54;1.10;99.90
24814;DHT22;12904;50.088;11.414;2023-03-02T04:09:21;1.30;99.90
24814;DHT22;12904;50.088;11.414;2023-03-02T04:11:48;1.40;99.90
24814;DHT22;12904;50.088;11.414;2023-03-02T04:14:15;1.50;99.90
24814;DHT22;12904;50.088;11.414;2023-03-02T04:16:41;1.50;99.90
24814;DHT22;12904;50.088;11.414;2023-03-02T04:19:07;1.50;99.90
24814;DHT22;12904;50.088;11.414;2023-03-02T04:21:42;1.60;99.90
24814;DHT22;12904;50.088;11.414;2023-03-02T04:24:09;1.60;99.90
24814;DHT22;12904;50.088;11.414;2023-03-02T04:26:36;1.60;99.90
24814;DHT22;12904;50.088;11.414;2023-03-02T04:29:03;1.70;99.90
24814;DHT22;12904;50.088;11.414;2023-03-02T04:31:29;1.80;99.90
24814;DHT22;12904;50.088;11.414;2023-03-02T04:33:56;1.80;99.90
24814;DHT22;12904;50.088;11.414;2023-03-02T04:36:21;1.80;99.90
24814;DHT22;12904;50.088;11.414;2023-03-02T04:38:47;1.80;99.90
24814;DHT22;12904;50.088;11.414;2023-03-02T04:41:14;1.80;99.90
24814;DHT22;12904;50.088;11.414;2023-03-02T04:43:39;1.80;99.90
24814;DHT22;12904;50.088;11.414;2023-03-02T04:46:05;1.80;99.90
24814;DHT22;12904;50.088;11.414;2023-03-02T04:48:31;1.90;99.90
24814;DHT22;12904;50.088;11.414;2023-03-02T04:50:56;1.90;99.90
24814;DHT22;12904;50.088;11.414;2023-03-02T04:53:22;1.90;99.90
24814;DHT22;12904;50.088;11.414;2023-03-02T04:55:48;1.90;99.90
24814;DHT22;12904;50.088;11.414;2023-03-02T04:58:14;1.90;99.90
24814;DHT22;12904;50.088;11.414;2023-03-02T05:00:40;1.90;99.90
24814;DHT22;12904;50.088;11.414;2023-03-02T05:03:05;1.90;99.90
24814;DHT22;12904;50.088;11.414;2023-03-02T05:05:32;1.90;99.90
24814;DHT22;12904;50.088;11.414;2023-03-02T05:07:58;1.90;99.90
24814;DHT22;12904;50.088;11.414;2023-03-02T05:10:25;1.80;99.90
24814;DHT22;12904;50.088;11.414;2023-03-02T05:12:51;1.80;99.90
24814;DHT22;12904;50.088;11.414;2023-03-02T05:15:35;1.70;99.90
24814;DHT22;12904;50.088;11.414;2023-03-02T05:18:02;1.70;99.90
24814;DHT22;12904;50.088;11.414;2023-03-02T05:20:29;1.70;99.90
24814;DHT22;12904;50.088;11.414;2023-03-02T05:22:58;1.70;99.90
24814;DHT22;12904;50.088;11.414;2023-03-02T05:25:24;1.70;99.90
24814;DHT22;12904;50.088;11.414;2023-03-02T05:27:50;1.70;99.90
24814;DHT22;12904;50.088;11.414;2023-03-02T05:30:17;1.70;99.90
24814;DHT22;12904;50.088;11.414;2023-03-02T05:32:43;1.60;99.90
24814;DHT22;12904;50.088;11.414;2023-03-02T05:35:09;1.50;99.90
24814;DHT22;12904;50.088;11.414;2023-03-02T05:37:35;1.50;99.90
24814;DHT22;12904;50.088;11.414;2023-03-02T05:40:00;1.40;99.90
24814;DHT22;12904;50.088;11.414;2023-03-02T05:42:26;1.40;99.90
24814;DHT22;12904;50.088;11.414;2023-03-02T05:44:51;1.30;99.90
24814;DHT22;12904;50.088;11.414;2023-03-02T05:47:17;1.40;99.90
24814;DHT22;12904;50.088;11.414;2023-03-02T05:49:43;1.40;99.90
24814;DHT22;12904;50.088;11.414;2023-03-02T05:52:08;1.40;99.90
24814;DHT22;12904;50.088;11.414;2023-03-02T05:54:34;1.40;99.90
24814;DHT22;12904;50.088;11.414;2023-03-02T05:56:59;1.50;99.90
24814;DHT22;12904;50.088;11.414;2023-03-02T05:59:25;1.50;99.90
24814;DHT22;12904;50.088;11.414;2023-03-02T06:01:51;1.50;99.90
24814;DHT22;12904;50.088;11.414;2023-03-02T06:04:23;1.50;99.90
24814;DHT22;12904;50.088;11.414;2023-03-02T06:06:49;1.50;99.90
24814;DHT22;12904;50.088;11.414;2023-03-02T06:09:15;1.60;99.90
24814;DHT22;12904;50.088;11.414;2023-03-02T06:11:40;1.50;99.90
24814;DHT22;12904;50.088;11.414;2023-03-02T06:14:06;1.60;99.90
24814;DHT22;12904;50.088;11.414;2023-03-02T06:16:32;1.60;99.90
24814;DHT22;12904;50.088;11.414;2023-03-02T06:18:58;1.70;99.90
24814;DHT22;12904;50.088;11.414;2023-03-02T06:21:24;1.70;99.90
24814;DHT22;12904;50.088;11.414;2023-03-02T06:23:49;1.80;99.90
24814;DHT22;12904;50.088;11.414;2023-03-02T06:26:16;1.80;99.90
24814;DHT22;12904;50.088;11.414;2023-03-02T06:28:41;1.90;99.90
24814;DHT22;12904;50.088;11.414;2023-03-02T06:31:07;2.00;99.90
24814;DHT22;12904;50.088;11.414;2023-03-02T06:33:33;2.00;99.60
24814;DHT22;12904;50.088;11.414;2023-03-02T06:35:58;2.10;99.30
24814;DHT22;12904;50.088;11.414;2023-03-02T06:38:24;2.10;98.80
24814;DHT22;12904;50.088;11.414;2023-03-02T06:40:50;2.10;99.20
24814;DHT22;12904;50.088;11.414;2023-03-02T06:43:16;2.20;98.70
24814;DHT22;12904;50.088;11.414;2023-03-02T06:45:42;2.30;98.10
24814;DHT22;12904;50.088;11.414;2023-03-02T06:48:07;2.40;97.80
24814;DHT22;12904;50.088;11.414;2023-03-02T06:50:33;2.40;98.00
24814;DHT22;12904;50.088;11.414;2023-03-02T06:52:59;2.40;98.10
24814;DHT22;12904;50.088;11.414;2023-03-02T06:55:25;2.50;97.50
24814;DHT22;12904;50.088;11.414;2023-03-02T06:57:51;2.50;97.40
24814;DHT22;12904;50.088;11.414;2023-03-02T07:00:17;2.50;97.40
24814;DHT22;12904;50.088;11.414;2023-03-02T07:02:49;2.60;97.30
24814;DHT22;12904;50.088;11.414;2023-03-02T07:05:20;2.60;96.60
24814;DHT22;12904;50.088;11.414;2023-03-02T07:07:46;2.60;97.00
24814;DHT22;12904;50.088;11.414;2023-03-02T07:10:12;2.70;96.40
24814;DHT22;12904;50.088;11.414;2023-03-02T07:12:39;2.70;96.40
24814;DHT22;12904;50.088;11.414;2023-03-02T07:15:05;2.80;96.20
24814;DHT22;12904;50.088;11.414;2023-03-02T07:17:36;2.80;96.00
24814;DHT22;12904;50.088;11.414;2023-03-02T07:20:05;2.90;96.50
24814;DHT22;12904;50.088;11.414;2023-03-02T07:22:31;2.90;95.80
24814;DHT22;12904;50.088;11.414;2023-03-02T07:24:57;3.00;95.90
24814;DHT22;12904;50.088;11.414;2023-03-02T07:27:23;3.10;95.70
24814;DHT22;12904;50.088;11.414;2023-03-02T07:29:49;3.10;95.40
24814;DHT22;12904;50.088;11.414;2023-03-02T07:32:14;3.20;95.70
24814;DHT22;12904;50.088;11.414;2023-03-02T07:34:40;3.20;95.20
24814;DHT22;12904;50.088;11.414;2023-03-02T07:37:05;3.30;95.40
24814;DHT22;12904;50.088;11.414;2023-03-02T07:39:31;3.30;95.60
24814;DHT22;12904;50.088;11.414;2023-03-02T07:42:01;3.40;95.20
24814;DHT22;12904;50.088;11.414;2023-03-02T07:44:28;3.40;95.00
24814;DHT22;12904;50.088;11.414;2023-03-02T07:46:54;3.50;95.10
24814;DHT22;12904;50.088;11.414;2023-03-02T07:49:20;3.50;94.60
24814;DHT22;12904;50.088;11.414;2023-03-02T07:51:46;3.70;94.70
24814;DHT22;12904;50.088;11.414;2023-03-02T07:54:11;3.70;94.10
24814;DHT22;12904;50.088;11.414;2023-03-02T07:56:37;3.80;93.40
24814;DHT22;12904;50.088;11.414;2023-03-02T07:59:02;3.90;93.50
24814;DHT22;12904;50.088;11.414;2023-03-02T08:01:28;4.00;93.30
24814;DHT22;12904;50.088;11.414;2023-03-02T08:03:54;4.10;92.50
24814;DHT22;12904;50.088;11.414;2023-03-02T08:06:19;4.20;92.30
24814;DHT22;12904;50.088;11.414;2023-03-02T08:08:45;4.30;92.00
24814;DHT22;12904;50.088;11.414;2023-03-02T08:11:14;4.40;91.70
24814;DHT22;12904;50.088;11.414;2023-03-02T08:13:41;4.40;91.80
24814;DHT22;12904;50.088;11.414;2023-03-02T08:16:08;4.50;92.20
24814;DHT22;12904;50.088;11.414;2023-03-02T08:18:35;4.60;91.60
24814;DHT22;12904;50.088;11.414;2023-03-02T08:21:01;4.70;91.40
24814;DHT22;12904;50.088;11.414;2023-03-02T08:23:26;4.80;90.80
24814;DHT22;12904;50.088;11.414;2023-03-02T08:25:53;4.90;90.60
24814;DHT22;12904;50.088;11.414;2023-03-02T08:28:20;4.90;90.50
24814;DHT22;12904;50.088;11.414;2023-03-02T08:30:57;5.00;90.30
24814;DHT22;12904;50.088;11.414;2023-03-02T08:33:23;5.10;90.10
24814;DHT22;12904;50.088;11.414;2023-03-02T08:38:28;5.20;89.70
24814;DHT22;12904;50.088;11.414;2023-03-02T08:40:54;5.30;89.60
24814;DHT22;12904;50.088;11.414;2023-03-02T08:43:21;5.30;88.70
24814;DHT22;12904;50.088;11.414;2023-03-02T08:45:52;5.40;89.00
24814;DHT22;12904;50.088;11.414;2023-03-02T08:48:19;5.50;88.80
24814;DHT22;12904;50.088;11.414;2023-03-02T08:50:57;5.50;88.00
24814;DHT22;12904;50.088;11.414;2023-03-02T08:53:23;5.60;87.50
24814;DHT22;12904;50.088;11.414;2023-03-02T08:55:49;5.70;88.40
24814;DHT22;12904;50.088;11.414;2023-03-02T08:58:15;5.80;86.60
24814;DHT22;12904;50.088;11.414;2023-03-02T09:00:41;5.90;86.70
24814;DHT22;12904;50.088;11.414;2023-03-02T09:03:06;5.90;86.60
24814;DHT22;12904;50.088;11.414;2023-03-02T09:05:32;6.10;85.50
24814;DHT22;12904;50.088;11.414;2023-03-02T09:07:58;6.10;85.90
24814;DHT22;12904;50.088;11.414;2023-03-02T09:10:23;6.20;85.30
24814;DHT22;12904;50.088;11.414;2023-03-02T09:12:49;6.30;84.90
24814;DHT22;12904;50.088;11.414;2023-03-02T09:15:15;6.30;84.70
24814;DHT22;12904;50.088;11.414;2023-03-02T09:17:40;6.40;84.90
24814;DHT22;12904;50.088;11.414;2023-03-02T09:20:07;6.60;84.00
24814;DHT22;12904;50.088;11.414;2023-03-02T09:22:33;6.80;83.80
24814;DHT22;12904;50.088;11.414;2023-03-02T09:25:01;7.30;82.60
24814;DHT22;12904;50.088;11.414;2023-03-02T09:27:27;8.20;80.60
24814;DHT22;12904;50.088;11.414;2023-03-02T09:29:52;9.50;78.30
24814;DHT22;12904;50.088;11.414;2023-03-02T09:32:18;11.10;70.90
24814;DHT22;12904;50.088;11.414;2023-03-02T09:34:43;12.30;66.00
24814;DHT22;12904;50.088;11.414;2023-03-02T09:37:09;13.10;62.70
24814;DHT22;12904;50.088;11.414;2023-03-02T09:39:36;13.90;61.20
24814;DHT22;12904;50.088;11.414;2023-03-02T09:55:32;17.20;51.40
24814;DHT22;12904;50.088;11.414;2023-03-02T09:58:00;17.50;49.50
24814;DHT22;12904;50.088;11.414;2023-03-02T10:00:34;17.40;48.10
24814;DHT22;12904;50.088;11.414;2023-03-02T10:05:53;17.00;48.20
24814;DHT22;12904;50.088;11.414;2023-03-02T10:08:24;16.60;50.80
24814;DHT22;12904;50.088;11.414;2023-03-02T10:13:52;16.30;51.10
24814;DHT22;12904;50.088;11.414;2023-03-02T10:19:31;16.30;51.40
24814;DHT22;12904;50.088;11.414;2023-03-02T10:22:08;16.40;51.00
24814;DHT22;12904;50.088;11.414;2023-03-02T10:27:35;16.50;50.70
24814;DHT22;12904;50.088;11.414;2023-03-02T10:32:37;16.90;50.70
24814;DHT22;12904;50.088;11.414;2023-03-02T10:35:13;17.00;50.20
24814;DHT22;12904;50.088;11.414;2023-03-02T10:37:40;17.10;51.70
24814;DHT22;12904;50.088;11.414;2023-03-02T10:40:32;17.20;51.90
24814;DHT22;12904;50.088;11.414;2023-03-02T10:42:57;17.50;49.70
24814;DHT22;12904;50.088;11.414;2023-03-02T10:45:31;17.80;50.90
24814;DHT22;12904;50.088;11.414;2023-03-02T10:48:05;18.20;49.20
24814;DHT22;12904;50.088;11.414;2023-03-02T10:50:31;18.20;47.90
24814;DHT22;12904;50.088;11.414;2023-03-02T10:52:58;17.80;48.30
24814;DHT22;12904;50.088;11.414;2023-03-02T10:55:24;17.50;50.00
24814;DHT22;12904;50.088;11.414;2023-03-02T11:00:55;17.70;48.30
24814;DHT22;12904;50.088;11.414;2023-03-02T11:03:22;17.60;48.60
24814;DHT22;12904;50.088;11.414;2023-03-02T11:05:48;17.20;50.10
24814;DHT22;12904;50.088;11.414;2023-03-02T11:08:18;17.00;51.90
24814;DHT22;12904;50.088;11.414;2023-03-02T11:10:59;16.90;52.30
24814;DHT22;12904;50.088;11.414;2023-03-02T11:13:29;16.80;53.30
24814;DHT22;12904;50.088;11.414;2023-03-02T11:18:39;16.70;54.50
24814;DHT22;12904;50.088;11.414;2023-03-02T11:21:28;16.60;53.00
24814;DHT22;12904;50.088;11.414;2023-03-02T11:26:38;16.40;52.90
24814;DHT22;12904;50.088;11.414;2023-03-02T11:37:04;15.70;55.70
24814;DHT22;12904;50.088;11.414;2023-03-02T11:40:03;15.50;56.40
24814;DHT22;12904;50.088;11.414;2023-03-02T11:42:41;15.30;56.90
24814;DHT22;12904;50.088;11.414;2023-03-02T11:45:25;15.30;57.50
24814;DHT22;12904;50.088;11.414;2023-03-02T11:53:18;14.90;57.80
24814;DHT22;12904;50.088;11.414;2023-03-02T11:55:47;14.90;58.00
24814;DHT22;12904;50.088;11.414;2023-03-02T11:58:25;14.70;57.20
24814;DHT22;12904;50.088;11.414;2023-03-02T12:00:52;14.50;58.30
24814;DHT22;12904;50.088;11.414;2023-03-02T12:03:35;14.10;59.00
24814;DHT22;12904;50.088;11.414;2023-03-02T12:06:46;14.00;59.60
24814;DHT22;12904;50.088;11.414;2023-03-02T12:08:52;14.00;60.00
24814;DHT22;12904;50.088;11.414;2023-03-02T12:27:23;14.10;59.40
24814;DHT22;12904;50.088;11.414;2023-03-02T12:30:10;14.10;59.30
24814;DHT22;12904;50.088;11.414;2023-03-02T12:32:36;13.80;58.80
24814;DHT22;12904;50.088;11.414;2023-03-02T12:35:12;13.70;59.50
24814;DHT22;12904;50.088;11.414;2023-03-02T12:37:51;13.50;59.80
24814;DHT22;12904;50.088;11.414;2023-03-02T12:46:24;13.50;60.30
24814;DHT22;12904;50.088;11.414;2023-03-02T12:49:02;13.30;61.50
24814;DHT22;12904;50.088;11.414;2023-03-02T12:51:42;13.10;61.30
24814;DHT22;12904;50.088;11.414;2023-03-02T12:54:18;13.00;62.10
24814;DHT22;12904;50.088;11.414;2023-03-02T12:56:45;13.00;63.00
24814;DHT22;12904;50.088;11.414;2023-03-02T12:59:25;13.00;61.70
24814;DHT22;12904;50.088;11.414;2023-03-02T13:01:51;13.00;61.70
24814;DHT22;12904;50.088;11.414;2023-03-02T13:04:27;13.00;62.90
24814;DHT22;12904;50.088;11.414;2023-03-02T13:06:53;13.10;62.30
24814;DHT22;12904;50.088;11.414;2023-03-02T13:09:20;13.20;62.70
24814;DHT22;12904;50.088;11.414;2023-03-02T13:11:47;13.10;62.20
24814;DHT22;12904;50.088;11.414;2023-03-02T13:16:54;13.30;61.90
24814;DHT22;12904;50.088;11.414;2023-03-02T13:19:20;13.30;62.60
24814;DHT22;12904;50.088;11.414;2023-03-02T13:21:46;13.30;61.50
24814;DHT22;12904;50.088;11.414;2023-03-02T13:24:43;13.50;62.70
24814;DHT22;12904;50.088;11.414;2023-03-02T13:29:42;13.90;62.10
24814;DHT22;12904;50.088;11.414;2023-03-02T13:37:35;14.00;60.20
24814;DHT22;12904;50.088;11.414;2023-03-02T13:42:42;14.10;60.40
24814;DHT22;12904;50.088;11.414;2023-03-02T13:45:31;14.00;61.10
24814;DHT22;12904;50.088;11.414;2023-03-02T13:47:59;14.00;61.10
24814;DHT22;12904;50.088;11.414;2023-03-02T13:50:28;14.20;60.00
24814;DHT22;12904;50.088;11.414;2023-03-02T13:52:56;14.20;59.90
24814;DHT22;12904;50.088;11.414;2023-03-02T13:55:22;14.10;59.30
24814;DHT22;12904;50.088;11.414;2023-03-02T13:57:49;14.00;59.90
24814;DHT22;12904;50.088;11.414;2023-03-02T14:00:30;14.00;59.90
24814;DHT22;12904;50.088;11.414;2023-03-02T14:02:57;14.00;60.80
24814;DHT22;12904;50.088;11.414;2023-03-02T14:05:23;14.00;60.30
24814;DHT22;12904;50.088;11.414;2023-03-02T14:07:51;14.00;60.40
24814;DHT22;12904;50.088;11.414;2023-03-02T14:10:19;13.80;60.40
24814;DHT22;12904;50.088;11.414;2023-03-02T14:13:05;13.60;61.40
24814;DHT22;12904;50.088;11.414;2023-03-02T14:15:34;13.60;61.30
24814;DHT22;12904;50.088;11.414;2023-03-02T14:20:53;13.40;61.70
24814;DHT22;12904;50.088;11.414;2023-03-02T14:23:18;13.40;62.10
24814;DHT22;12904;50.088;11.414;2023-03-02T14:25:44;13.50;62.40
24814;DHT22;12904;50.088;11.414;2023-03-02T14:28:12;13.50;62.40
24814;DHT22;12904;50.088;11.414;2023-03-02T14:30:41;13.60;61.70
24814;DHT22;12904;50.088;11.414;2023-03-02T14:33:15;13.60;61.00
24814;DHT22;12904;50.088;11.414;2023-03-02T14:35:41;13.50;61.50
24814;DHT22;12904;50.088;11.414;2023-03-02T14:38:09;13.50;60.80
24814;DHT22;12904;50.088;11.414;2023-03-02T14:40:35;13.30;60.90
24814;DHT22;12904;50.088;11.414;2023-03-02T14:43:01;13.20;61.10
24814;DHT22;12904;50.088;11.414;2023-03-02T14:45:26;13.20;61.90
24814;DHT22;12904;50.088;11.414;2023-03-02T14:47:52;13.40;62.80
24814;DHT22;12904;50.088;11.414;2023-03-02T14:50:18;13.40;60.90
24814;DHT22;12904;50.088;11.414;2023-03-02T14:52:48;13.30;61.60
24814;DHT22;12904;50.088;11.414;2023-03-02T14:55:24;13.30;62.20
24814;DHT22;12904;50.088;11.414;2023-03-02T14:57:57;13.30;61.70
24814;DHT22;12904;50.088;11.414;2023-03-02T15:00:23;13.10;61.90
24814;DHT22;12904;50.088;11.414;2023-03-02T15:02:49;12.80;63.00
24814;DHT22;12904;50.088;11.414;2023-03-02T15:05:15;12.50;64.00
24814;DHT22;12904;50.088;11.414;2023-03-02T15:07:41;12.30;64.20
24814;DHT22;12904;50.088;11.414;2023-03-02T15:10:12;12.00;65.40
24814;DHT22;12904;50.088;11.414;2023-03-02T15:12:38;11.80;66.30
24814;DHT22;12904;50.088;11.414;2023-03-02T15:15:04;11.50;65.80
24814;DHT22;12904;50.088;11.414;2023-03-02T15:17:30;11.20;67.90
24814;DHT22;12904;50.088;11.414;2023-03-02T15:19:55;11.00;67.50
24814;DHT22;12904;50.088;11.414;2023-03-02T15:22:21;10.80;68.10
24814;DHT22;12904;50.088;11.414;2023-03-02T15:24:47;10.70;68.80
24814;DHT22;12904;50.088;11.414;2023-03-02T15:27:12;10.60;69.70
24814;DHT22;12904;50.088;11.414;2023-03-02T15:29:42;10.50;70.00
24814;DHT22;12904;50.088;11.414;2023-03-02T15:32:08;10.40;69.30
24814;DHT22;12904;50.088;11.414;2023-03-02T15:34:34;10.30;69.50
24814;DHT22;12904;50.088;11.414;2023-03-02T15:37:00;10.40;69.80
24814;DHT22;12904;50.088;11.414;2023-03-02T15:39:26;10.40;69.50
24814;DHT22;12904;50.088;11.414;2023-03-02T15:41:51;10.50;69.20
24814;DHT22;12904;50.088;11.414;2023-03-02T15:44:20;10.50;69.20
24814;DHT22;12904;50.088;11.414;2023-03-02T15:46:52;10.50;69.70
24814;DHT22;12904;50.088;11.414;2023-03-02T15:49:18;10.50;69.50
24814;DHT22;12904;50.088;11.414;2023-03-02T15:51:53;10.40;69.50
24814;DHT22;12904;50.088;11.414;2023-03-02T15:54:20;10.20;69.60
24814;DHT22;12904;50.088;11.414;2023-03-02T15:56:47;10.10;70.10
24814;DHT22;12904;50.088;11.414;2023-03-02T15:59:16;9.90;70.60
24814;DHT22;12904;50.088;11.414;2023-03-02T16:01:42;9.80;70.90
24814;DHT22;12904;50.088;11.414;2023-03-02T16:04:08;9.60;71.60
24814;DHT22;12904;50.088;11.414;2023-03-02T16:06:34;9.50;72.10
24814;DHT22;12904;50.088;11.414;2023-03-02T16:08:59;9.30;72.90
24814;DHT22;12904;50.088;11.414;2023-03-02T16:11:25;9.20;72.90
24814;DHT22;12904;50.088;11.414;2023-03-02T16:13:51;9.20;73.00
24814;DHT22;12904;50.088;11.414;2023-03-02T16:16:18;9.10;73.00
24814;DHT22;12904;50.088;11.414;2023-03-02T16:18:55;9.00;73.70
24814;DHT22;12904;50.088;11.414;2023-03-02T16:21:22;8.80;73.40
24814;DHT22;12904;50.088;11.414;2023-03-02T16:23:48;8.70;73.30
24814;DHT22;12904;50.088;11.414;2023-03-02T16:26:16;8.70;73.30
24814;DHT22;12904;50.088;11.414;2023-03-02T16:28:42;8.60;73.80
24814;DHT22;12904;50.088;11.414;2023-03-02T16:31:11;8.50;73.80
24814;DHT22;12904;50.088;11.414;2023-03-02T16:33:38;8.40;74.10
24814;DHT22;12904;50.088;11.414;2023-03-02T16:36:05;8.30;74.60
24814;DHT22;12904;50.088;11.414;2023-03-02T16:38:31;8.20;74.30
24814;DHT22;12904;50.088;11.414;2023-03-02T16:40:57;8.10;74.60
24814;DHT22;12904;50.088;11.414;2023-03-02T16:43:23;8.00;74.60
24814;DHT22;12904;50.088;11.414;2023-03-02T16:45:50;7.90;74.40
24814;DHT22;12904;50.088;11.414;2023-03-02T16:48:16;7.80;74.20
24814;DHT22;12904;50.088;11.414;2023-03-02T16:50:42;7.70;75.00
24814;DHT22;12904;50.088;11.414;2023-03-02T16:53:08;7.50;75.10
24814;DHT22;12904;50.088;11.414;2023-03-02T16:55:34;7.40;75.50
24814;DHT22;12904;50.088;11.414;2023-03-02T16:58:00;7.30;75.70
24814;DHT22;12904;50.088;11.414;2023-03-02T17:00:25;7.30;75.90
24814;DHT22;12904;50.088;11.414;2023-03-02T17:02:52;7.20;75.80
24814;DHT22;12904;50.088;11.414;2023-03-02T17:05:19;7.10;75.90
24814;DHT22;12904;50.088;11.414;2023-03-02T17:07:46;7.00;75.70